createdAt,value
2023-04-23T00:02:19.700Z,5.93
2023-04-23T00:10:26.165Z,6.28
2023-04-23T00:18:34.280Z,6.75
2023-04-23T00:26:39.779Z,6.40
2023-04-23T00:34:49.085Z,6.03
2023-04-23T00:42:55.664Z,5.47
2023-04-23T00:51:08.063Z,5.88
2023-04-23T00:59:13.727Z,6.32
2023-04-23T01:07:25.089Z,6.32
2023-04-23T01:15:31.128Z,6.93
2023-04-23T01:23:39.293Z,6.38
2023-04-23T01:31:45.735Z,6.72
2023-04-23T01:39:54.417Z,6.20
2023-04-23T01:48:00.120Z,6.35
2023-04-23T01:56:10.067Z,6.05
2023-04-23T02:04:16.986Z,6.45
2023-04-23T02:12:25.237Z,6.20
2023-04-23T02:20:30.759Z,6.40
2023-04-23T02:28:39.131Z,7.75
2023-04-23T02:36:44.647Z,6.78
2023-04-23T02:44:52.849Z,7.00
2023-04-23T02:52:58.408Z,6.68
2023-04-23T03:01:07.226Z,6.72
2023-04-23T03:09:12.880Z,7.30
2023-04-23T03:17:21.088Z,7.60
2023-04-23T03:25:27.046Z,7.57
2023-04-23T03:33:35.312Z,7.03
2023-04-23T03:41:41.462Z,7.53
2023-04-23T03:49:51.527Z,6.88
2023-04-23T03:57:57.104Z,7.07
2023-04-23T04:06:08.272Z,6.50
2023-04-23T04:14:13.998Z,6.63
2023-04-23T04:22:22.286Z,7.53
2023-04-23T04:30:27.952Z,7.22
2023-04-23T04:38:38.055Z,7.07
2023-04-23T04:46:43.999Z,6.57
2023-04-23T04:54:52.080Z,7.15
2023-04-23T05:02:57.844Z,6.88
2023-04-23T05:11:06.864Z,6.00
2023-04-23T05:19:12.379Z,7.03
2023-04-23T05:27:20.589Z,7.03
2023-04-23T05:35:26.131Z,7.22
2023-04-23T05:43:34.286Z,7.07
2023-04-23T05:51:39.946Z,6.75
2023-04-23T05:59:48.064Z,6.80
2023-04-23T06:07:53.508Z,6.65
2023-04-23T06:16:01.857Z,6.13
2023-04-23T06:24:07.701Z,6.75
2023-04-23T06:32:17.299Z,7.03
2023-04-23T06:40:24.565Z,6.80
2023-04-23T06:48:32.623Z,5.85
2023-04-23T06:56:38.138Z,5.68
2023-04-23T07:04:47.025Z,6.10
2023-04-23T07:12:53.720Z,5.93
2023-04-23T07:21:01.801Z,6.05
2023-04-23T07:29:08.224Z,6.30
2023-04-23T07:37:16.372Z,5.90
2023-04-23T07:45:22.600Z,5.88
2023-04-23T07:53:31.183Z,6.05
2023-04-23T08:01:37.023Z,5.30
2023-04-23T08:09:45.909Z,5.57
2023-04-23T08:17:51.572Z,5.25
2023-04-23T08:25:59.642Z,5.45
2023-04-23T08:34:05.295Z,6.03
2023-04-23T08:42:21.260Z,4.97
2023-04-23T08:50:28.266Z,4.85
2023-04-23T08:58:37.139Z,5.13
2023-04-23T09:06:42.697Z,5.07
2023-04-23T09:14:52.089Z,5.82
2023-04-23T09:22:57.550Z,5.15
2023-04-23T09:31:09.151Z,4.90
2023-04-23T09:39:18.465Z,4.75
2023-04-23T09:47:27.247Z,4.75
2023-04-23T09:55:35.935Z,5.20
2023-04-23T10:03:47.516Z,4.85
2023-04-23T10:11:54.676Z,5.38
2023-04-23T10:20:04.657Z,4.72
2023-04-23T10:28:12.385Z,5.00
2023-04-23T10:36:20.968Z,5.60
2023-04-23T10:44:46.997Z,5.97
2023-04-23T10:52:54.973Z,5.45
2023-04-23T11:01:01.208Z,5.28
2023-04-23T11:09:41.912Z,6.13
2023-04-23T11:18:03.315Z,5.03
2023-04-23T11:26:11.914Z,5.25
2023-04-23T11:34:18.182Z,5.10
2023-04-23T11:42:28.616Z,4.88
2023-04-23T11:50:36.461Z,4.03
2023-04-23T11:58:44.569Z,4.57
2023-04-23T12:06:51.528Z,3.60
2023-04-23T12:15:07.493Z,3.65
2023-04-23T12:23:13.109Z,4.10
2023-04-23T12:31:26.725Z,3.90
2023-04-23T12:39:34.175Z,4.72
2023-04-23T12:47:42.209Z,4.10
2023-04-23T12:55:48.675Z,10.82
2023-04-23T13:03:57.296Z,7.03
2023-04-23T13:12:02.902Z,3.65
2023-04-23T13:20:12.194Z,3.72
2023-04-23T13:28:17.905Z,3.22
2023-04-23T13:36:27.137Z,3.80
2023-04-23T13:44:32.640Z,4.20
2023-04-23T13:52:41.266Z,5.43
2023-04-23T14:00:47.276Z,5.68
2023-04-23T14:08:55.361Z,3.70
2023-04-23T14:17:01.527Z,5.97
2023-04-23T14:25:13.398Z,4.22
2023-04-23T14:33:18.882Z,4.78
2023-04-23T14:41:27.029Z,4.00
2023-04-23T14:49:32.539Z,4.07
2023-04-23T14:57:40.623Z,3.90
2023-04-23T15:05:46.316Z,4.30
2023-04-23T15:14:04.449Z,5.43
2023-04-23T15:22:09.968Z,8.98
2023-04-23T15:30:18.471Z,4.88
2023-04-23T15:38:24.968Z,4.05
2023-04-23T15:46:33.190Z,4.50
2023-04-23T15:54:38.828Z,4.32
2023-04-23T16:02:47.174Z,5.43
2023-04-23T16:10:52.799Z,5.20
2023-04-23T16:19:02.223Z,4.70
2023-04-23T16:27:11.060Z,4.70
2023-04-23T16:35:19.386Z,4.50
2023-04-23T16:43:24.962Z,4.00
2023-04-23T16:51:33.331Z,4.22
2023-04-23T16:59:41.010Z,4.47
2023-04-23T17:07:49.161Z,5.30
2023-04-23T17:15:54.692Z,4.70
2023-04-23T17:24:05.144Z,4.57
2023-04-23T17:32:10.844Z,4.65
2023-04-23T17:40:19.556Z,5.93
2023-04-23T17:48:26.259Z,6.25
2023-04-23T17:56:35.006Z,5.97
2023-04-23T18:04:40.707Z,6.22
2023-04-23T18:12:51.391Z,6.72
2023-04-23T18:20:57.536Z,5.88
2023-04-23T18:29:05.910Z,6.43
2023-04-23T18:37:14.077Z,6.35
2023-04-23T18:45:22.216Z,5.15
2023-04-23T18:53:27.707Z,5.38
2023-04-23T19:01:38.191Z,5.78
2023-04-23T19:09:44.109Z,5.75
2023-04-23T19:17:52.784Z,5.43
2023-04-23T19:25:58.331Z,5.40
2023-04-23T19:34:06.492Z,5.50
2023-04-23T19:42:12.036Z,5.68
2023-04-23T19:50:21.116Z,6.47
2023-04-23T19:58:26.579Z,6.38
2023-04-23T20:06:36.815Z,7.28
2023-04-23T20:14:42.886Z,7.60
2023-04-23T20:22:51.488Z,8.20
2023-04-23T20:30:57.708Z,7.70
2023-04-23T20:39:08.507Z,8.40
2023-04-23T20:47:14.546Z,7.22
2023-04-23T20:55:22.828Z,6.22
2023-04-23T21:03:28.672Z,6.30
2023-04-23T21:11:36.946Z,6.10
2023-04-23T21:19:42.657Z,5.93
2023-04-23T21:27:51.172Z,6.03
2023-04-23T21:35:57.275Z,6.13
2023-04-23T21:44:05.492Z,6.07
2023-04-23T21:52:11.693Z,5.93
2023-04-23T22:00:25.190Z,5.40
2023-04-23T22:08:30.731Z,5.28
2023-04-23T22:16:39.183Z,5.68
2023-04-23T22:24:44.680Z,5.45
2023-04-23T22:32:52.837Z,5.32
2023-04-23T22:40:58.334Z,6.13
2023-04-23T22:49:08.335Z,5.95
2023-04-23T22:57:15.096Z,5.43
2023-04-23T23:05:23.604Z,5.55
2023-04-23T23:13:29.355Z,4.90
2023-04-23T23:21:37.530Z,5.65
2023-04-23T23:29:43.210Z,4.97
2023-04-23T23:37:51.546Z,5.90
2023-04-23T23:45:57.006Z,5.38
2023-04-23T23:54:05.082Z,5.70
